createdAt,value
2023-05-08T00:01:38.848Z,100009.88
2023-05-08T00:04:06.407Z,100008.34
2023-05-08T00:06:34.917Z,100012.03
2023-05-08T00:09:04.007Z,100006.38
2023-05-08T00:11:33.038Z,100010.13
2023-05-08T00:14:02.062Z,100008.63
2023-05-08T00:16:32.355Z,100023.28
2023-05-08T00:19:01.396Z,100010.28
2023-05-08T00:21:31.404Z,100009.00
2023-05-08T00:23:59.591Z,100021.66
2023-05-08T00:26:27.780Z,100019.38
2023-05-08T00:28:55.994Z,100014.34
2023-05-08T00:31:24.320Z,100016.72
2023-05-08T00:33:52.583Z,100015.34
2023-05-08T00:36:20.751Z,100012.53
2023-05-08T00:38:49.013Z,100015.34
2023-05-08T00:41:16.376Z,100023.50
2023-05-08T00:43:43.805Z,100016.94
2023-05-08T00:46:13.663Z,100022.06
2023-05-08T00:48:42.912Z,100026.06
2023-05-08T00:51:11.706Z,100017.38
2023-05-08T00:53:43.440Z,100017.00
2023-05-08T00:56:15.217Z,100017.41
2023-05-08T00:58:43.990Z,100011.06
2023-05-08T01:01:12.790Z,100017.94
2023-05-08T01:03:41.186Z,100010.63
2023-05-08T01:06:08.940Z,100012.97
2023-05-08T01:08:36.339Z,100016.63
2023-05-08T01:11:14.045Z,100021.06
2023-05-08T01:14:06.311Z,100026.75
2023-05-08T01:16:45.398Z,100027.91
2023-05-08T01:19:41.339Z,100027.09
2023-05-08T01:22:59.409Z,100027.44
2023-05-08T01:26:15.955Z,100033.81
2023-05-08T01:29:44.027Z,100033.75
2023-05-08T01:32:30.706Z,100042.03
2023-05-08T01:35:10.777Z,100042.03
2023-05-08T01:37:46.903Z,100039.09
2023-05-08T01:40:41.373Z,100043.06
2023-05-08T01:43:26.039Z,100046.28
2023-05-08T01:45:56.883Z,100046.63
2023-05-08T01:49:03.861Z,100048.16
2023-05-08T01:51:42.247Z,100039.84
2023-05-08T01:54:16.231Z,100038.88
2023-05-08T01:56:47.257Z,100042.47
2023-05-08T01:59:20.152Z,100041.84
2023-05-08T02:01:51.207Z,100040.66
2023-05-08T02:04:20.158Z,100042.47
2023-05-08T02:06:48.617Z,100044.13
2023-05-08T02:09:17.080Z,100045.78
2023-05-08T02:11:47.577Z,100049.91
2023-05-08T02:14:20.640Z,100052.03
2023-05-08T02:16:52.078Z,100050.09
2023-05-08T02:19:23.911Z,100057.75
2023-05-08T02:21:53.400Z,100059.41
2023-05-08T02:24:24.260Z,100063.25
2023-05-08T02:26:54.813Z,100064.50
2023-05-08T02:29:24.383Z,100061.13
2023-05-08T02:31:54.786Z,100063.69
2023-05-08T02:34:24.765Z,100060.47
2023-05-08T02:36:54.888Z,100062.91
2023-05-08T02:39:26.896Z,100068.47
2023-05-08T02:41:54.232Z,100068.53
2023-05-08T02:44:21.600Z,100068.94
2023-05-08T02:47:20.393Z,100064.47
2023-05-08T02:50:12.158Z,100076.03
2023-05-08T02:52:49.878Z,100074.72
2023-05-08T02:55:43.226Z,100071.22
2023-05-08T02:58:58.209Z,100076.47
2023-05-08T03:01:33.745Z,100073.25
2023-05-08T03:04:08.711Z,100077.56
2023-05-08T03:06:46.186Z,100081.81
2023-05-08T03:09:19.970Z,100074.13
2023-05-08T03:11:50.658Z,100080.00
2023-05-08T03:14:23.190Z,100078.38
2023-05-08T03:16:54.115Z,100080.72
2023-05-08T03:19:34.752Z,100081.13
2023-05-08T03:22:05.728Z,100082.72
2023-05-08T03:24:37.421Z,100074.66
2023-05-08T03:27:07.704Z,100083.63
2023-05-08T03:29:36.797Z,100077.44
2023-05-08T03:32:04.532Z,100075.94
2023-05-08T03:34:34.045Z,100081.00
2023-05-08T03:37:03.297Z,100089.16
2023-05-08T03:39:31.452Z,100081.66
2023-05-08T03:42:00.638Z,100089.41
2023-05-08T03:44:31.270Z,100090.50
2023-05-08T03:46:59.590Z,100092.50
2023-05-08T03:49:27.278Z,100089.28
2023-05-08T03:51:56.779Z,100087.78
2023-05-08T03:54:25.750Z,100087.53
2023-05-08T03:56:54.626Z,100090.03
2023-05-08T04:00:10.079Z,100091.84
2023-05-08T04:02:42.459Z,100086.41
2023-05-08T04:05:38.051Z,100087.03
2023-05-08T04:08:29.847Z,100094.50
2023-05-08T04:11:36.892Z,100097.72
2023-05-08T04:14:08.589Z,100106.19
2023-05-08T04:16:41.141Z,100109.22
2023-05-08T04:19:20.767Z,100109.28
2023-05-08T04:21:51.315Z,100119.69
2023-05-08T04:24:20.190Z,100118.91
2023-05-08T04:26:49.550Z,100124.34
2023-05-08T04:29:18.785Z,100125.00
2023-05-08T04:31:48.392Z,100136.88
2023-05-08T04:34:16.527Z,100136.56
2023-05-08T04:36:45.436Z,100148.72
2023-05-08T04:39:13.665Z,100144.91
2023-05-08T04:41:41.911Z,100153.44
2023-05-08T04:44:10.182Z,100149.22
2023-05-08T04:46:37.510Z,100153.69
2023-05-08T04:49:05.769Z,100152.91
2023-05-08T04:51:33.143Z,100157.34
2023-05-08T04:54:01.394Z,100155.06
2023-05-08T04:56:28.647Z,100163.19
2023-05-08T04:58:56.740Z,100164.38
2023-05-08T05:01:24.070Z,100169.69
2023-05-08T05:03:51.366Z,100175.69
2023-05-08T05:06:19.481Z,100178.84
2023-05-08T05:08:46.767Z,100180.56
2023-05-08T05:11:14.078Z,100178.25
2023-05-08T05:13:43.118Z,100186.94
2023-05-08T05:16:10.501Z,100194.53
2023-05-08T05:18:37.840Z,100185.59
2023-05-08T05:21:05.103Z,100192.31
2023-05-08T05:23:32.343Z,100191.28
2023-05-08T05:25:59.611Z,100192.47
2023-05-08T05:28:26.821Z,100192.00
2023-05-08T05:30:57.587Z,100198.13
2023-05-08T05:33:24.986Z,100203.47
2023-05-08T05:35:52.976Z,100199.16
2023-05-08T05:38:22.000Z,100193.22
2023-05-08T05:40:49.770Z,100194.44
2023-05-08T05:43:18.901Z,100189.56
2023-05-08T05:45:46.120Z,100197.00
2023-05-08T05:48:13.406Z,100193.03
2023-05-08T05:50:40.661Z,100200.97
2023-05-08T05:53:07.958Z,100197.28
2023-05-08T05:55:36.019Z,100200.44
2023-05-08T05:58:05.159Z,100209.78
2023-05-08T06:00:34.172Z,100209.78
2023-05-08T06:03:03.124Z,100216.34
2023-05-08T06:05:30.620Z,100211.13
2023-05-08T06:07:58.013Z,100209.38
2023-05-08T06:10:25.678Z,100212.41
2023-05-08T06:12:53.636Z,100213.03
2023-05-08T06:17:54.543Z,100215.38
2023-05-08T06:20:22.327Z,100224.22
2023-05-08T06:22:50.151Z,100222.50
2023-05-08T06:25:19.690Z,100228.75
2023-05-08T06:27:48.687Z,100228.28
2023-05-08T06:30:19.489Z,100225.31
2023-05-08T06:32:46.781Z,100224.88
2023-05-08T06:35:18.870Z,100219.41
2023-05-08T06:37:49.642Z,100224.84
2023-05-08T06:40:19.213Z,100229.09
2023-05-08T06:42:46.509Z,100224.19
2023-05-08T06:45:15.864Z,100223.44
2023-05-08T06:47:43.411Z,100224.03
2023-05-08T06:50:11.038Z,100224.13
2023-05-08T06:52:39.292Z,100228.97
2023-05-08T06:55:06.836Z,100231.31
2023-05-08T06:57:37.527Z,100230.47
2023-05-08T07:00:05.212Z,100226.28
2023-05-08T07:02:32.742Z,100236.84
2023-05-08T07:05:00.033Z,100241.25
2023-05-08T07:07:30.794Z,100242.88
2023-05-08T07:09:57.971Z,100242.22
2023-05-08T07:12:25.239Z,100242.34
2023-05-08T07:14:52.459Z,100239.75
2023-05-08T07:17:19.700Z,100241.00
2023-05-08T07:19:51.667Z,100243.00
2023-05-08T07:22:19.101Z,100246.47
2023-05-08T07:24:48.169Z,100241.13
2023-05-08T07:27:15.419Z,100247.56
2023-05-08T07:29:42.912Z,100249.53
2023-05-08T07:32:10.540Z,100248.38
2023-05-08T07:34:37.740Z,100252.00
2023-05-08T07:37:05.030Z,100244.47
2023-05-08T07:39:32.447Z,100249.34
2023-05-08T07:41:59.644Z,100247.31
2023-05-08T07:44:26.907Z,100249.81
2023-05-08T07:46:54.145Z,100252.25
2023-05-08T07:49:21.380Z,100243.97
2023-05-08T07:51:49.301Z,100253.38
2023-05-08T07:54:16.564Z,100253.50
2023-05-08T07:56:43.793Z,100247.09
2023-05-08T07:59:10.989Z,100248.78
2023-05-08T08:01:38.305Z,100255.72
2023-05-08T08:04:06.151Z,100257.28
2023-05-08T08:06:35.333Z,100241.41
2023-05-08T08:09:02.543Z,100248.94
2023-05-08T08:11:30.194Z,100240.41
2023-05-08T08:13:57.415Z,100247.94
2023-05-08T08:16:24.744Z,100244.63
2023-05-08T08:18:53.150Z,100254.03
2023-05-08T08:21:20.504Z,100249.53
2023-05-08T08:23:47.687Z,100245.81
2023-05-08T08:26:14.843Z,100249.47
2023-05-08T08:28:42.073Z,100244.16
2023-05-08T08:31:09.310Z,100241.59
2023-05-08T08:33:36.834Z,100239.19
2023-05-08T08:36:04.234Z,100243.09
2023-05-08T08:38:31.530Z,100239.63
2023-05-08T08:40:58.737Z,100241.16
2023-05-08T08:43:26.868Z,100238.81
2023-05-08T08:45:54.927Z,100242.72
2023-05-08T08:48:28.663Z,100238.47
2023-05-08T08:51:03.712Z,100237.41
2023-05-08T08:53:40.620Z,100225.38
2023-05-08T08:56:09.310Z,100236.13
2023-05-08T08:58:50.019Z,100245.22
2023-05-08T09:01:19.687Z,100244.28
2023-05-08T09:03:48.357Z,100239.59
2023-05-08T09:06:17.424Z,100234.38
2023-05-08T09:08:45.319Z,100240.28
2023-05-08T09:11:12.510Z,100242.13
2023-05-08T09:13:39.794Z,100241.34
2023-05-08T09:16:07.547Z,100248.63
2023-05-08T09:18:34.740Z,100245.94
2023-05-08T09:21:02.870Z,100240.25
2023-05-08T09:23:30.156Z,100244.38
2023-05-08T09:25:57.463Z,100243.25
2023-05-08T09:28:26.425Z,100238.25
2023-05-08T09:30:59.258Z,100239.69
2023-05-08T09:33:28.912Z,100241.34
2023-05-08T09:35:57.835Z,100241.47
2023-05-08T09:38:40.320Z,100243.84
2023-05-08T09:41:16.474Z,100242.06
2023-05-08T09:43:45.414Z,100233.69
2023-05-08T09:46:27.238Z,100234.31
2023-05-08T09:48:57.513Z,100233.03
2023-05-08T09:51:26.771Z,100238.41
2023-05-08T09:53:57.424Z,100230.16
2023-05-08T09:56:39.570Z,100236.19
2023-05-08T09:59:30.775Z,100230.84
2023-05-08T10:01:59.022Z,100230.56
2023-05-08T10:04:35.554Z,100225.53
2023-05-08T10:07:04.839Z,100219.09
2023-05-08T10:09:46.756Z,100227.22
2023-05-08T10:12:18.000Z,100222.41
2023-05-08T10:14:46.881Z,100226.53
2023-05-08T10:17:23.668Z,100212.94
2023-05-08T10:20:00.331Z,100219.63
2023-05-08T10:22:29.552Z,100212.66
2023-05-08T10:24:59.436Z,100216.50
2023-05-08T10:28:01.893Z,100220.50
2023-05-08T10:30:32.363Z,100211.25
2023-05-08T10:33:08.361Z,100208.94
2023-05-08T10:35:38.106Z,100205.03
2023-05-08T10:38:09.653Z,100203.88
2023-05-08T10:40:38.882Z,100204.47
2023-05-08T10:43:08.097Z,100203.63
2023-05-08T10:45:37.553Z,100204.34
2023-05-08T10:48:16.054Z,100201.84
2023-05-08T10:51:12.921Z,100211.03
2023-05-08T10:53:59.302Z,100205.47
2023-05-08T10:56:28.651Z,100210.00
2023-05-08T10:58:58.693Z,100199.44
2023-05-08T11:01:27.921Z,100195.84
2023-05-08T11:03:56.618Z,100198.19
2023-05-08T11:06:49.279Z,100185.84
2023-05-08T11:09:28.889Z,100191.84
2023-05-08T11:12:10.658Z,100191.84
2023-05-08T11:14:43.206Z,100195.41
2023-05-08T11:17:11.585Z,100188.53
2023-05-08T11:19:58.477Z,100191.38
2023-05-08T11:22:37.231Z,100193.31
2023-05-08T11:25:10.908Z,100194.13
2023-05-08T11:28:07.211Z,100189.28
2023-05-08T11:30:37.890Z,100192.97
2023-05-08T11:33:05.922Z,100193.75
2023-05-08T11:35:47.253Z,100187.84
2023-05-08T11:38:18.960Z,100186.56
2023-05-08T11:41:06.156Z,100179.00
2023-05-08T11:43:34.152Z,100182.59
2023-05-08T11:46:15.770Z,100186.03
2023-05-08T11:48:44.376Z,100177.94
2023-05-08T11:51:13.850Z,100183.78
2023-05-08T11:53:42.077Z,100187.81
2023-05-08T11:56:10.258Z,100186.94
2023-05-08T11:58:38.203Z,100178.06
2023-05-08T12:01:06.191Z,100179.19
2023-05-08T12:03:34.447Z,100175.44
2023-05-08T12:06:02.544Z,100184.81
2023-05-08T12:08:30.482Z,100187.41
2023-05-08T12:10:58.725Z,100180.63
2023-05-08T12:13:29.298Z,100178.91
2023-05-08T12:16:00.408Z,100178.28
2023-05-08T12:18:30.717Z,100181.78
2023-05-08T12:21:01.007Z,100184.94
2023-05-08T12:23:30.534Z,100185.50
2023-05-08T12:26:02.296Z,100182.81
2023-05-08T12:28:32.576Z,100180.47
2023-05-08T12:31:01.663Z,100170.84
2023-05-08T12:33:31.019Z,100176.75
2023-05-08T12:35:59.817Z,100174.63
2023-05-08T12:38:29.736Z,100180.09
2023-05-08T12:40:57.662Z,100179.50
2023-05-08T12:43:34.079Z,100192.97
2023-05-08T12:46:05.855Z,100178.19
2023-05-08T12:48:33.803Z,100175.16
2023-05-08T12:51:04.177Z,100182.91
2023-05-08T12:53:33.395Z,100181.22
2023-05-08T12:56:04.435Z,100175.44
2023-05-08T12:58:35.000Z,100166.56
2023-05-08T13:01:14.877Z,100174.78
2023-05-08T13:03:42.979Z,100176.63
2023-05-08T13:06:22.026Z,100177.66
2023-05-08T13:08:57.621Z,100166.16
2023-05-08T13:11:33.489Z,100175.78
2023-05-08T13:14:01.498Z,100172.91
2023-05-08T13:16:29.573Z,100179.22
2023-05-08T13:18:57.499Z,100172.91
2023-05-08T13:21:27.659Z,100178.06
2023-05-08T13:23:57.036Z,100168.88
2023-05-08T13:26:25.878Z,100170.59
2023-05-08T13:28:56.214Z,100183.66
2023-05-08T13:31:24.910Z,100183.66
2023-05-08T13:33:52.909Z,100174.63
2023-05-08T13:36:21.150Z,100167.94
2023-05-08T13:38:54.411Z,100184.69
2023-05-08T13:41:22.332Z,100182.41
2023-05-08T13:43:50.231Z,100174.88
2023-05-08T13:46:18.188Z,100178.78
2023-05-08T13:48:46.142Z,100182.34
2023-05-08T13:51:14.040Z,100180.91
2023-05-08T13:53:41.939Z,100181.19
2023-05-08T13:56:09.811Z,100176.91
2023-05-08T13:58:37.752Z,100180.34
2023-05-08T14:01:22.014Z,100180.50
2023-05-08T14:03:54.035Z,100171.63
2023-05-08T14:06:22.038Z,100179.78
2023-05-08T14:08:52.298Z,100181.28
2023-05-08T14:11:22.559Z,100180.34
2023-05-08T14:13:50.793Z,100185.81
2023-05-08T14:16:18.873Z,100187.53
2023-05-08T14:18:46.793Z,100176.50
2023-05-08T14:21:14.701Z,100187.56
2023-05-08T14:23:44.045Z,100195.84
2023-05-08T14:26:11.953Z,100193.31
2023-05-08T14:28:39.877Z,100197.16
2023-05-08T14:31:07.911Z,100201.44
2023-05-08T14:33:35.845Z,100208.06
2023-05-08T14:36:03.926Z,100200.84
2023-05-08T14:38:31.472Z,100209.16
2023-05-08T14:40:58.825Z,100206.91
2023-05-08T14:43:26.565Z,100211.50
2023-05-08T14:45:53.818Z,100218.25
2023-05-08T14:48:21.028Z,100220.25
2023-05-08T14:50:48.229Z,100216.47
2023-05-08T14:53:15.606Z,100209.38
2023-05-08T14:55:43.152Z,100212.88
2023-05-08T14:58:10.802Z,100208.97
2023-05-08T15:00:38.000Z,100221.25
2023-05-08T15:03:05.508Z,100219.38
2023-05-08T15:05:33.186Z,100220.78
2023-05-08T15:08:02.862Z,100225.38
2023-05-08T15:10:32.035Z,100222.72
2023-05-08T15:12:59.380Z,100234.31
2023-05-08T15:15:26.767Z,100223.50
2023-05-08T15:17:54.016Z,100226.66
2023-05-08T15:20:21.668Z,100222.72
2023-05-08T15:22:49.451Z,100237.41
2023-05-08T15:25:16.927Z,100231.97
2023-05-08T15:27:44.354Z,100232.94
2023-05-08T15:30:12.302Z,100235.69
2023-05-08T15:32:40.461Z,100238.66
2023-05-08T15:35:08.093Z,100237.44
2023-05-08T15:37:37.232Z,100238.78
2023-05-08T15:40:04.841Z,100242.09
2023-05-08T15:42:33.976Z,100243.84
2023-05-08T15:45:02.313Z,100241.41
2023-05-08T15:47:29.573Z,100242.38
2023-05-08T15:49:58.629Z,100236.06
2023-05-08T15:52:25.892Z,100243.38
2023-05-08T15:54:53.134Z,100239.59
2023-05-08T15:57:20.411Z,100246.47
2023-05-08T15:59:47.721Z,100245.47
2023-05-08T16:02:15.283Z,100254.16
2023-05-08T16:04:42.545Z,100240.75
2023-05-08T16:07:09.790Z,100245.19
2023-05-08T16:09:37.095Z,100251.97
2023-05-08T16:12:04.534Z,100249.97
2023-05-08T16:14:31.779Z,100258.03
2023-05-08T16:16:58.941Z,100254.53
2023-05-08T16:19:29.021Z,100257.22
2023-05-08T16:21:56.239Z,100251.34
2023-05-08T16:24:23.596Z,100257.47
2023-05-08T16:26:51.158Z,100255.66
2023-05-08T16:29:18.480Z,100255.84
2023-05-08T16:31:45.796Z,100262.06
2023-05-08T16:34:13.274Z,100260.34
2023-05-08T16:36:40.754Z,100266.66
2023-05-08T16:39:08.599Z,100260.94
2023-05-08T16:41:35.847Z,100265.16
2023-05-08T16:44:04.841Z,100268.41
2023-05-08T16:46:32.078Z,100264.59
2023-05-08T16:48:59.294Z,100260.25
2023-05-08T16:51:26.758Z,100269.41
2023-05-08T16:53:55.457Z,100277.13
2023-05-08T16:56:24.520Z,100283.59
2023-05-08T16:58:51.744Z,100283.53
2023-05-08T17:01:19.054Z,100287.88
2023-05-08T17:03:49.897Z,100293.66
2023-05-08T17:06:17.186Z,100299.00
2023-05-08T17:08:44.464Z,100297.81
2023-05-08T17:11:11.652Z,100300.50
2023-05-08T17:13:38.801Z,100300.63
2023-05-08T17:16:06.941Z,100310.91
2023-05-08T17:18:34.224Z,100316.78
2023-05-08T17:21:01.519Z,100316.13
2023-05-08T17:23:28.764Z,100310.72
2023-05-08T17:26:00.205Z,100317.03
2023-05-08T17:28:27.467Z,100312.72
2023-05-08T17:30:58.829Z,100314.53
2023-05-08T17:33:26.193Z,100314.22
2023-05-08T17:35:53.414Z,100324.50
2023-05-08T17:38:21.077Z,100324.22
2023-05-08T17:40:48.321Z,100330.84
2023-05-08T17:43:17.395Z,100336.22
2023-05-08T17:45:47.582Z,100343.00
2023-05-08T17:48:14.803Z,100347.56
2023-05-08T17:50:47.081Z,100355.19
2023-05-08T17:53:14.417Z,100346.00
2023-05-08T17:55:41.726Z,100357.56
2023-05-08T17:58:09.250Z,100354.72
2023-05-08T18:00:36.552Z,100357.84
2023-05-08T18:03:04.676Z,100366.44
2023-05-08T18:05:32.523Z,100371.22
2023-05-08T18:08:01.676Z,100367.09
2023-05-08T18:10:31.529Z,100376.91
2023-05-08T18:12:59.822Z,100365.94
2023-05-08T18:15:29.313Z,100381.09
2023-05-08T18:17:58.707Z,100388.28
2023-05-08T18:20:26.831Z,100390.88
2023-05-08T18:22:56.071Z,100395.53
2023-05-08T18:25:24.091Z,100401.09
2023-05-08T18:27:53.201Z,100401.41
2023-05-08T18:30:20.463Z,100414.22
2023-05-08T18:32:50.915Z,100407.41
2023-05-08T18:35:18.277Z,100411.69
2023-05-08T18:37:45.533Z,100415.81
2023-05-08T18:40:16.388Z,100418.81
2023-05-08T18:42:47.271Z,100419.38
2023-05-08T18:45:14.537Z,100433.97
2023-05-08T18:47:41.986Z,100434.84
2023-05-08T18:50:10.138Z,100439.03
2023-05-08T18:52:37.342Z,100438.28
2023-05-08T18:55:08.009Z,100442.91
2023-05-08T18:57:35.298Z,100444.72
2023-05-08T19:00:02.801Z,100449.03
2023-05-08T19:02:34.449Z,100442.19
2023-05-08T19:05:03.608Z,100448.31
2023-05-08T19:07:32.723Z,100450.78
2023-05-08T19:10:00.479Z,100453.53
2023-05-08T19:12:27.747Z,100453.78
2023-05-08T19:14:56.840Z,100453.09
2023-05-08T19:17:25.912Z,100456.34
2023-05-08T19:19:55.094Z,100459.16
2023-05-08T19:22:25.828Z,100448.59
2023-05-08T19:24:54.896Z,100455.84
2023-05-08T19:27:22.558Z,100458.16
2023-05-08T19:29:52.506Z,100453.66
2023-05-08T19:32:19.707Z,100456.84
2023-05-08T19:34:48.484Z,100447.84
2023-05-08T19:37:15.667Z,100445.34
2023-05-08T19:39:44.774Z,100456.22
2023-05-08T19:42:14.064Z,100444.78
2023-05-08T19:44:43.248Z,100450.00
2023-05-08T19:47:10.470Z,100455.22
2023-05-08T19:49:37.755Z,100451.16
2023-05-08T19:52:05.435Z,100453.91
2023-05-08T19:54:34.507Z,100449.28
2023-05-08T19:57:05.250Z,100461.69
2023-05-08T19:59:32.451Z,100464.78
2023-05-08T20:01:59.709Z,100466.59
2023-05-08T20:04:29.001Z,100465.56
2023-05-08T20:06:56.279Z,100455.81
2023-05-08T20:09:23.641Z,100460.56
2023-05-08T20:11:50.923Z,100458.22
2023-05-08T20:14:18.242Z,100459.97
2023-05-08T20:16:48.205Z,100455.72
2023-05-08T20:19:15.525Z,100453.66
2023-05-08T20:21:42.789Z,100449.06
2023-05-08T20:24:10.076Z,100449.19
2023-05-08T20:26:37.402Z,100449.06
2023-05-08T20:29:04.604Z,100453.88
2023-05-08T20:31:32.377Z,100451.47
2023-05-08T20:34:01.565Z,100452.94
2023-05-08T20:36:31.496Z,100451.13
2023-05-08T20:38:58.844Z,100447.25
2023-05-08T20:41:27.927Z,100455.00
2023-05-08T20:43:55.162Z,100443.63
2023-05-08T20:46:22.571Z,100444.63
2023-05-08T20:48:51.362Z,100445.75
2023-05-08T20:51:18.583Z,100444.84
2023-05-08T20:53:45.960Z,100444.72
2023-05-08T20:56:15.709Z,100444.91
2023-05-08T20:58:46.359Z,100446.38
2023-05-08T21:01:13.653Z,100449.25
2023-05-08T21:03:40.884Z,100450.97
2023-05-08T21:06:08.290Z,100450.41
2023-05-08T21:08:36.157Z,100436.06
2023-05-08T21:11:03.768Z,100438.69
2023-05-08T21:13:32.808Z,100437.34
2023-05-08T21:16:01.933Z,100450.72
2023-05-08T21:18:29.213Z,100449.50
2023-05-08T21:20:57.265Z,100447.50
2023-05-08T21:23:25.646Z,100437.25
2023-05-08T21:25:53.315Z,100438.78
2023-05-08T21:28:22.437Z,100446.31
2023-05-08T21:30:49.721Z,100438.59
2023-05-08T21:33:18.133Z,100435.59
2023-05-08T21:35:45.534Z,100431.56
2023-05-08T21:38:12.853Z,100438.38
2023-05-08T21:40:41.977Z,100428.31
2023-05-08T21:43:11.185Z,100434.84
2023-05-08T21:45:38.526Z,100429.56
2023-05-08T21:48:06.300Z,100434.38
2023-05-08T21:50:34.347Z,100428.03
2023-05-08T21:53:01.708Z,100433.66
2023-05-08T21:55:30.993Z,100433.09
2023-05-08T21:57:59.608Z,100436.94
2023-05-08T22:00:29.505Z,100430.25
2023-05-08T22:02:57.694Z,100426.66
2023-05-08T22:05:25.938Z,100426.28
2023-05-08T22:07:54.159Z,100434.38
2023-05-08T22:10:22.335Z,100429.50
2023-05-08T22:12:50.607Z,100421.97
2023-05-08T22:15:29.116Z,100417.44
2023-05-08T22:17:59.600Z,100418.63
2023-05-08T22:20:29.820Z,100423.78
2023-05-08T22:22:57.100Z,100424.75
2023-05-08T22:25:26.950Z,100428.50
2023-05-08T22:27:55.151Z,100412.69
2023-05-08T22:30:23.251Z,100408.06
2023-05-08T22:32:58.451Z,100407.47
2023-05-08T22:35:27.854Z,100410.13
2023-05-08T22:37:58.253Z,100417.41
2023-05-08T22:40:28.527Z,100415.84
2023-05-08T22:42:56.598Z,100401.53
2023-05-08T22:45:23.978Z,100402.31
2023-05-08T22:47:51.617Z,100397.72
2023-05-08T22:50:21.353Z,100396.03
2023-05-08T22:52:48.689Z,100394.75
2023-05-08T22:55:16.747Z,100400.63
2023-05-08T22:57:44.275Z,100396.03
2023-05-08T23:00:13.918Z,100395.91
2023-05-08T23:02:42.015Z,100395.78
2023-05-08T23:05:11.243Z,100396.38
2023-05-08T23:07:38.505Z,100396.69
2023-05-08T23:10:08.245Z,100392.13
2023-05-08T23:12:35.613Z,100388.69
2023-05-08T23:15:04.814Z,100390.00
2023-05-08T23:17:32.140Z,100388.47
2023-05-08T23:20:03.080Z,100393.66
2023-05-08T23:22:30.514Z,100383.59
2023-05-08T23:24:57.736Z,100383.66
2023-05-08T23:27:26.059Z,100381.16
2023-05-08T23:29:55.222Z,100384.81
2023-05-08T23:32:22.489Z,100385.88
2023-05-08T23:34:49.773Z,100389.00
2023-05-08T23:37:16.997Z,100384.88
2023-05-08T23:39:44.268Z,100388.88
2023-05-08T23:42:12.640Z,100382.03
2023-05-08T23:44:41.694Z,100385.28
2023-05-08T23:47:08.988Z,100383.22
2023-05-08T23:49:38.101Z,100378.84
2023-05-08T23:52:07.258Z,100379.00
2023-05-08T23:54:34.479Z,100370.56
2023-05-08T23:57:01.740Z,100377.47
2023-05-08T23:59:29.024Z,100364.44
